Time;durP1;ratioP1;P1;durP2;ratioP2;P2;SDS_P1;SDS_P2;PMS_P1;PMS_P2;Temp;Humidity;BMP_temperature;BMP_pressure;BME280_temperature;BME280_humidity;BME280_pressure;Samples;Min_cycle;Max_cycle;Signal;HPM_P1;HPM_P2
2021/12/15 00:00:16;;;;;;;50.20;22.55;;;;;;;7.13;100.00;102109.00;5113829;27;20035;-80
2021/12/15 00:02:44;;;;;;;42.45;20.77;;;;;;;7.10;100.00;102108.38;5097741;27;20095;-79
2021/12/15 00:05:11;;;;;;;48.00;20.48;;;;;;;7.09;100.00;102104.84;5114383;27;20039;-79
2021/12/15 00:07:36;;;;;;;47.60;20.50;;;;;;;7.13;100.00;102111.66;5133425;27;20122;-79
2021/12/15 00:10:05;;;;;;;52.88;22.45;;;;;;;7.11;100.00;102108.25;5114924;27;20096;-79
2021/12/15 00:12:30;;;;;;;43.80;19.20;;;;;;;7.19;100.00;102118.34;5133034;27;20027;-79
2021/12/15 00:14:56;;;;;;;43.03;18.60;;;;;;;7.14;100.00;102102.75;5114536;27;20097;-79
2021/12/15 00:17:23;;;;;;;43.03;19.45;;;;;;;7.24;100.00;102118.88;5133008;27;20091;-79
2021/12/15 00:19:50;;;;;;;40.15;17.73;;;;;;;7.24;100.00;102104.75;5114468;27;20062;-79
2021/12/15 00:22:15;;;;;;;44.28;19.45;;;;;;;7.25;100.00;102109.09;5114506;27;20109;-79
2021/12/15 00:24:42;;;;;;;45.70;19.50;;;;;;;7.19;100.00;102105.94;5097471;27;20039;-79
2021/12/15 00:27:07;;;;;;;41.17;18.95;;;;;;;7.12;100.00;102094.03;5097604;27;20038;-79
2021/12/15 00:29:33;;;;;;;40.65;17.98;;;;;;;7.14;100.00;102097.44;5114525;27;20038;-78
2021/12/15 00:32:03;;;;;;;46.28;19.02;;;;;;;7.14;100.00;102097.44;5097573;27;20034;-79
2021/12/15 00:34:34;;;;;;;42.13;18.35;;;;;;;7.16;100.00;102082.25;5132058;27;20031;-79
2021/12/15 00:37:01;;;;;;;41.83;18.48;;;;;;;7.22;100.00;102094.22;5114451;27;20027;-80
2021/12/15 00:39:29;;;;;;;38.47;18.27;;;;;;;7.20;100.00;102080.19;5114515;27;20051;-79
2021/12/15 00:41:55;;;;;;;40.20;18.27;;;;;;;7.21;100.00;102091.66;5132269;27;20060;-79
2021/12/15 00:44:21;;;;;;;;;;;;;;;7.24;100.00;102092.31;5097591;27;20030;-79
2021/12/15 00:46:50;;;;;;;;;;;;;;;7.23;100.00;102095.06;5114448;27;19914;-79
2021/12/15 00:49:15;;;;;;;46.60;19.27;;;;;;;7.16;100.00;102090.22;5097131;27;19915;-79
2021/12/15 00:51:42;;;;;;;44.73;18.97;;;;;;;7.16;100.00;102095.53;5114010;27;20035;-79
2021/12/15 00:54:09;;;;;;;48.22;20.38;;;;;;;7.19;100.00;102100.59;5113605;27;20341;-79
2021/12/15 00:56:36;;;;;;;45.83;20.00;;;;;;;7.24;100.00;102107.41;5114184;27;20027;-80
2021/12/15 00:59:06;;;;;;;44.92;21.85;;;;;;;7.24;100.00;102107.41;5096983;27;20095;-79
2021/12/15 01:01:34;;;;;;;47.00;21.90;;;;;;;7.26;100.00;102110.78;5113735;27;20046;-79
2021/12/15 01:03:59;;;;;;;50.28;21.48;;;;;;;7.28;100.00;102117.72;5096411;27;20088;-79
2021/12/15 01:06:26;;;;;;;44.50;20.58;;;;;;;7.36;100.00;102127.81;5113935;27;20356;-80
2021/12/15 01:08:57;;;;;;;47.17;22.15;;;;;;;7.32;100.00;102110.38;5113955;27;20051;-79
2021/12/15 01:12:07;;;;;;;45.20;20.40;;;;;;;7.49;100.00;102127.78;5131114;27;20463;-80
2021/12/15 01:20:16;;;;;;;45.20;21.08;;;;;;;7.37;100.00;102086.97;5113265;27;20495;-79
2021/12/15 01:22:46;;;;;;;45.63;22.40;;;;;;;7.34;100.00;102096.00;5113208;27;20366;-79
2021/12/15 01:25:26;;;;;;;49.33;21.27;;;;;;;7.35;100.00;102086.22;5096301;27;20445;-79
2021/12/15 01:27:52;;;;;;;49.92;22.60;;;;;;;7.34;100.00;102092.50;5113300;27;20490;-79
2021/12/15 01:30:22;;;;;;;56.22;23.17;;;;;;;7.37;100.00;102082.53;5096344;27;20033;-79
2021/12/15 01:32:48;;;;;;;49.15;22.90;;;;;;;7.43;100.00;102088.38;5096254;27;20035;-79
2021/12/15 01:35:14;;;;;;;50.65;22.90;;;;;;;7.37;100.00;102076.34;5112960;27;20103;-79
2021/12/15 01:37:40;;;;;;;53.08;24.73;;;;;;;7.43;100.00;102083.88;5096429;27;20078;-79
2021/12/15 01:40:08;;;;;;;;;;;;;;;7.42;100.00;102082.19;5131848;27;20035;-79
2021/12/15 01:42:35;;;;;;;51.83;22.20;;;;;;;7.35;100.00;102073.81;5096273;27;19921;-79
2021/12/15 01:47:44;;;;;;;51.00;21.88;;;;;;;7.42;100.00;102089.31;5112961;27;20031;-79
2021/12/15 01:50:11;;;;;;;50.22;22.23;;;;;;;7.37;100.00;102087.84;5113162;27;20136;-79
2021/12/15 01:52:39;;;;;;;54.28;22.52;;;;;;;7.40;100.00;102092.94;5096065;27;20112;-79
2021/12/15 01:55:15;;;;;;;47.72;23.02;;;;;;;7.48;100.00;102099.50;5112655;27;20038;-79
2021/12/15 01:57:41;;;;;;;46.70;21.57;;;;;;;7.49;100.00;102102.06;5095867;27;20031;-79
2021/12/15 02:00:33;;;;;;;43.40;20.25;;;;;;;7.51;100.00;102093.97;5112687;27;20269;-79
2021/12/15 02:02:59;;;;;;;50.45;22.77;;;;;;;7.51;100.00;102084.19;5112733;27;20524;-79
2021/12/15 02:05:26;;;;;;;53.60;23.30;;;;;;;7.53;100.00;102084.91;5112442;27;20114;-79
2021/12/15 02:07:52;;;;;;;48.67;23.20;;;;;;;7.47;100.00;102077.41;5112674;27;20508;-79
2021/12/15 02:10:23;;;;;;;41.50;20.38;;;;;;;7.55;100.00;102080.34;5112356;27;20106;-79
2021/12/15 02:12:48;;;;;;;45.70;20.85;;;;;;;7.51;100.00;102068.22;5112590;27;20069;-79
2021/12/15 02:15:17;;;;;;;47.55;20.45;;;;;;;7.53;100.00;102074.28;5112309;27;20099;-79
2021/12/15 02:17:44;;;;;;;52.72;24.65;;;;;;;7.57;100.00;102075.78;5112477;27;20448;-79
2021/12/15 02:20:18;;;;;;;47.55;22.25;;;;;;;7.56;100.00;102071.44;5096543;27;20586;-79
2021/12/15 02:22:44;;;;;;;48.83;22.10;;;;;;;7.57;100.00;102077.59;5129233;27;20041;-79
2021/12/15 02:25:13;;;;;;;;;;;;;;;7.64;100.00;102080.66;5112562;27;20031;-79
2021/12/15 02:27:40;;;;;;;47.10;20.42;;;;;;;7.64;100.00;102072.69;5095379;27;19922;-79
2021/12/15 02:38:41;;;;;;;49.38;22.63;;;;;;;7.57;100.00;102057.16;5112321;27;20031;-78
2021/12/15 02:41:13;;;;;;;47.17;21.52;;;;;;;7.54;100.00;102065.38;5112194;27;20043;-79
2021/12/15 02:43:40;;;;;;;49.88;21.98;;;;;;;7.66;100.00;102073.44;5094490;27;20027;-79
2021/12/15 02:46:06;;;;;;;51.00;22.75;;;;;;;7.61;100.00;102074.59;5112196;27;20052;-79
2021/12/15 02:48:32;;;;;;;53.33;22.50;;;;;;;7.63;100.00;102071.81;5130088;27;20027;-78
2021/12/15 02:50:59;;;;;;;52.88;23.15;;;;;;;7.68;100.00;102074.13;5094973;27;20107;-79
2021/12/15 02:53:24;;;;;;;53.08;22.88;;;;;;;7.56;100.00;102043.97;5093372;27;20030;-79
2021/12/15 02:55:50;;;;;;;46.30;21.20;;;;;;;7.67;100.00;102069.78;5129345;27;20031;-80
2021/12/15 02:58:18;;;;;;;53.53;23.50;;;;;;;7.71;100.00;102069.47;5111777;27;20031;-79
2021/12/15 03:01:13;;;;;;;47.70;21.83;;;;;;;7.71;100.00;102072.13;5111592;27;20038;-79
2021/12/15 03:04:09;;;;;;;47.42;21.88;;;;;;;7.76;100.00;102077.09;5128521;27;20579;-80
2021/12/15 03:06:49;;;;;;;53.45;24.73;;;;;;;7.75;100.00;102072.72;5129722;27;20054;-79
2021/12/15 03:17:27;;;;;;;53.45;24.25;;;;;;;7.65;100.00;102069.06;5129522;27;20054;-79
2021/12/15 03:19:52;;;;;;;51.73;23.70;;;;;;;7.69;100.00;102075.84;5129488;27;20019;-79
2021/12/15 03:22:19;;;;;;;55.90;23.23;;;;;;;7.65;100.00;102061.09;5111049;28;20029;-79
2021/12/15 03:24:44;;;;;;;;;;;;;;;7.69;100.00;102076.69;5094538;27;20749;-80
2021/12/15 03:27:17;;;;;;;73.38;25.63;;;;;;;7.58;100.00;102050.88;5111198;27;19918;-79
2021/12/15 03:37:44;;;;;;;60.95;25.45;;;;;;;7.65;100.00;102085.00;5129538;28;20031;-79
2021/12/15 03:40:27;;;;;;;59.75;24.95;;;;;;;7.66;100.00;102090.22;5129236;28;20051;-79
2021/12/15 03:43:00;;;;;;;58.25;24.48;;;;;;;7.73;100.00;102099.44;5111204;28;20035;-79
2021/12/15 03:45:35;;;;;;;60.83;25.92;;;;;;;7.64;100.00;102094.78;5129363;27;20761;-80
2021/12/15 03:48:05;;;;;;;61.65;24.83;;;;;;;7.67;100.00;102099.03;5094214;28;20039;-79
2021/12/15 03:50:32;;;;;;;64.75;27.40;;;;;;;7.60;100.00;102093.31;5111163;28;20038;-79
2021/12/15 03:52:57;;;;;;;66.70;26.17;;;;;;;7.63;100.00;102105.53;5111037;28;20031;-79
2021/12/15 03:55:27;;;;;;;61.22;26.65;;;;;;;7.64;100.00;102115.22;5110772;28;20444;-79
2021/12/15 03:57:54;;;;;;;63.00;25.60;;;;;;;7.72;100.00;102128.78;5094110;27;20116;-79
2021/12/15 04:00:20;;;;;;;60.97;25.15;;;;;;;7.66;100.00;102124.78;5129011;27;20027;-79
2021/12/15 04:02:47;;;;;;;66.38;25.63;;;;;;;7.67;100.00;102121.16;5110889;28;20150;-79
2021/12/15 04:05:13;;;;;;;;;;;;;;;7.74;100.00;102132.19;5111148;28;20039;-79
2021/12/15 04:07:39;;;;;;;65.18;27.38;;;;;;;7.65;100.00;102115.09;5094160;28;20307;-79
2021/12/15 04:10:08;;;;;;;68.28;26.45;;;;;;;7.61;100.00;102127.75;5110782;28;20038;-79
2021/12/15 04:12:34;;;;;;;73.95;27.05;;;;;;;7.67;100.00;102142.41;5110931;28;20105;-79
2021/12/15 04:17:46;;;;;;;70.70;27.52;;;;;;;7.67;100.00;102146.88;5110940;28;20039;-79
2021/12/15 04:20:15;;;;;;;71.93;25.92;;;;;;;7.66;100.00;102161.16;5111066;28;20023;-79
2021/12/15 04:22:42;;;;;;;69.15;27.38;;;;;;;7.70;100.00;102157.28;5093592;27;20035;-80
2021/12/15 04:25:15;;;;;;;68.38;26.55;;;;;;;7.69;100.00;102160.91;5110436;28;20368;-79
2021/12/15 04:28:14;;;;;;;71.53;26.45;;;;;;;7.73;100.00;102173.03;5128791;28;20066;-80
2021/12/15 04:30:45;;;;;;;78.78;27.50;;;;;;;7.74;100.00;102174.72;5110556;28;20090;-79
2021/12/15 04:33:17;;;;;;;75.15;27.02;;;;;;;7.76;100.00;102163.03;5110618;27;20057;-79
2021/12/15 04:35:43;;;;;;;71.70;27.23;;;;;;;7.82;100.00;102170.56;5128476;27;20345;-79
2021/12/15 04:38:11;;;;;;;77.70;28.17;;;;;;;7.80;100.00;102164.50;5110080;28;20043;-80
2021/12/15 04:40:37;;;;;;;71.70;27.85;;;;;;;7.87;100.00;102172.06;5093209;28;20056;-80
2021/12/15 04:43:03;;;;;;;72.55;27.48;;;;;;;7.82;100.00;102170.56;5110729;28;20043;-79
2021/12/15 04:45:30;;;;;;;83.03;27.90;;;;;;;7.78;100.00;102165.59;5128304;27;20029;-80
2021/12/15 04:47:57;;;;;;;73.43;27.27;;;;;;;7.80;100.00;102163.66;5114221;27;20163;-79
2021/12/15 04:50:26;;;;;;;80.80;28.10;;;;;;;7.84;100.00;102173.09;5113716;27;20030;-80
2021/12/15 04:52:53;;;;;;;75.80;27.92;;;;;;;7.77;100.00;102159.44;5097143;27;20642;-79
2021/12/15 04:55:20;;;;;;;73.05;27.30;;;;;;;7.80;100.00;102167.19;5113934;27;20035;-80
2021/12/15 04:57:46;;;;;;;77.97;28.42;;;;;;;7.80;100.00;102176.97;5097152;27;20030;-80
2021/12/15 05:00:16;;;;;;;80.78;31.33;;;;;;;7.80;100.00;102177.81;5114005;27;20035;-80
2021/12/15 05:02:42;;;;;;;75.95;30.33;;;;;;;7.89;100.00;102189.59;5113926;27;20039;-79
2021/12/15 05:05:09;;;;;;;81.73;29.47;;;;;;;7.89;100.00;102183.41;5113913;27;20030;-79
2021/12/15 05:07:35;;;;;;;74.97;30.08;;;;;;;7.88;100.00;102166.63;5113391;27;20061;-80
2021/12/15 05:10:03;;;;;;;84.85;28.90;;;;;;;7.79;100.00;102164.63;5113950;27;20114;-79
2021/12/15 05:12:29;;;;;;;79.32;27.30;;;;;;;7.88;100.00;102174.59;5113916;27;20355;-79
2021/12/15 05:14:54;;;;;;;73.90;26.43;;;;;;;7.83;100.00;102179.41;5113790;27;20114;-79
2021/12/15 05:17:20;;;;;;;74.30;26.33;;;;;;;7.93;100.00;102191.06;5113837;27;20332;-80
2021/12/15 05:19:47;;;;;;;77.65;29.75;;;;;;;7.95;100.00;102193.63;5113725;27;20356;-79
2021/12/15 05:22:14;;;;;;;81.00;29.27;;;;;;;7.95;100.00;102189.16;5113323;27;20071;-79
2021/12/15 05:24:42;;;;;;;81.65;27.15;;;;;;;8.02;100.00;102187.75;5131470;27;20343;-80
2021/12/15 05:27:13;;;;;;;76.95;28.63;;;;;;;8.00;100.00;102194.97;5131652;27;20039;-80
2021/12/15 05:29:42;;;;;;;74.80;27.20;;;;;;;7.98;100.00;102180.97;5113582;27;20368;-79
2021/12/15 05:32:10;;;;;;;78.03;27.60;;;;;;;7.99;100.00;102180.00;5115073;27;20027;-78
2021/12/15 05:34:37;;;;;;;77.57;27.75;;;;;;;7.99;100.00;102185.31;5112964;27;20322;-77
2021/12/15 05:37:04;;;;;;;68.57;23.35;;;;;;;7.98;100.00;102173.00;5113263;27;20100;-77
2021/12/15 05:39:30;;;;;;;78.95;26.17;;;;;;;8.04;100.00;102179.66;5113446;27;20058;-78
2021/12/15 05:41:56;;;;;;;;;;;;;;;8.04;100.00;102183.16;5113968;27;20035;-78
2021/12/15 05:44:22;;;;;;;;;;;;;;;8.04;100.00;102182.31;5131638;27;19975;-78
2021/12/15 05:46:47;;;;;;;72.55;25.60;;;;;;;8.03;100.00;102175.31;5131316;27;19911;-78
2021/12/15 05:49:14;;;;;;;67.35;25.42;;;;;;;8.07;100.00;102178.59;5112792;27;20066;-77
2021/12/15 05:51:40;;;;;;;;;;;;;;;8.07;100.00;102176.78;5113546;27;20065;-78
2021/12/15 05:54:07;;;;;;;71.18;25.48;;;;;;;8.17;100.00;102193.78;5113058;27;20084;-77
2021/12/15 05:56:32;;;;;;;75.82;25.70;;;;;;;8.12;100.00;102173.78;5131562;27;20023;-78
2021/12/15 05:58:58;;;;;;;67.97;25.90;;;;;;;8.12;100.00;102173.78;5113595;27;20035;-78
2021/12/15 06:01:23;;;;;;;66.40;25.52;;;;;;;8.17;100.00;102168.97;5114043;27;20069;-78
2021/12/15 06:03:49;;;;;;;63.53;24.40;;;;;;;8.19;100.00;102169.72;5096391;27;20039;-78
2021/12/15 06:06:15;;;;;;;69.47;26.17;;;;;;;8.17;100.00;102153.00;5096872;27;20064;-78
2021/12/15 06:08:41;;;;;;;64.15;26.35;;;;;;;8.15;100.00;102147.81;5113743;27;20034;-78
2021/12/15 06:11:06;;;;;;;62.33;26.87;;;;;;;8.24;100.00;102162.22;5096883;27;20042;-77
2021/12/15 06:13:32;;;;;;;76.63;27.30;;;;;;;8.22;100.00;102148.22;5096395;27;20019;-77
2021/12/15 06:15:59;;;;;;;62.33;23.60;;;;;;;8.25;100.00;102147.97;5131481;27;20280;-78
2021/12/15 06:18:26;;;;;;;63.65;23.90;;;;;;;8.28;100.00;102141.59;5096669;27;20517;-77
2021/12/15 06:20:54;;;;;;;74.88;27.30;;;;;;;8.19;100.00;102136.00;5112871;27;20035;-77
2021/12/15 06:23:22;;;;;;;65.72;26.77;;;;;;;8.28;100.00;102142.44;5113549;27;20034;-78
2021/12/15 06:25:55;;;;;;;72.65;28.85;;;;;;;8.28;100.00;102142.44;5096287;27;20035;-77
2021/12/15 06:28:22;;;;;;;65.30;25.45;;;;;;;8.33;100.00;102156.22;5113528;27;20038;-78
2021/12/15 06:30:48;;;;;;;70.53;26.92;;;;;;;8.33;100.00;102145.59;5097926;27;20031;-78
2021/12/15 06:33:15;;;;;;;72.32;25.92;;;;;;;8.34;100.00;102151.78;5096022;27;20490;-77
2021/12/15 06:35:48;;;;;;;64.00;26.83;;;;;;;8.34;100.00;102147.31;5095428;27;20562;-77
2021/12/15 06:38:14;;;;;;;70.47;29.00;;;;;;;8.36;100.00;102156.03;5112214;27;20088;-77
2021/12/15 06:40:40;;;;;;;72.85;25.83;;;;;;;8.31;100.00;102136.91;5094873;27;20035;-77
2021/12/15 06:43:05;;;;;;;69.20;25.45;;;;;;;8.26;100.00;102125.72;5111968;27;20142;-78
2021/12/15 06:45:39;;;;;;;76.40;27.73;;;;;;;8.25;100.00;102132.03;5112131;27;20041;-78
2021/12/15 06:58:47;;;;;;;76.03;28.60;;;;;;;8.32;100.00;102149.22;5111738;27;20114;-78
2021/12/15 07:01:13;;;;;;;67.07;27.48;;;;;;;8.28;100.00;102158.38;5094825;27;20118;-78
2021/12/15 07:03:39;;;;;;;77.43;28.77;;;;;;;8.35;100.00;102167.63;5094594;27;20456;-78
2021/12/15 07:06:05;;;;;;;69.57;27.33;;;;;;;8.41;100.00;102180.53;5111970;27;20022;-78
2021/12/15 07:08:31;;;;;;;73.25;28.25;;;;;;;8.37;100.00;102157.72;5111407;27;20035;-78
2021/12/15 07:10:59;;;;;;;72.65;27.20;;;;;;;8.32;100.00;102154.56;5111796;27;20067;-77
2021/12/15 07:13:26;;;;;;;75.95;29.23;;;;;;;8.37;100.00;102171.03;5111679;27;20031;-77
2021/12/15 07:15:59;;;;;;;68.72;26.85;;;;;;;8.39;100.00;102170.91;5094423;27;20149;-78
2021/12/15 07:18:37;;;;;;;77.00;26.10;;;;;;;8.37;100.00;102165.69;5111613;28;20050;-77
2021/12/15 07:21:08;;;;;;;82.53;27.90;;;;;;;8.35;100.00;102164.97;5129434;27;20031;-77
2021/12/15 07:23:34;;;;;;;77.90;31.63;;;;;;;8.31;100.00;102168.84;5111257;28;20044;-77
2021/12/15 07:26:00;;;;;;;88.78;30.23;;;;;;;8.31;100.00;102171.50;5129635;27;20355;-77
2021/12/15 07:28:25;;;;;;;81.07;29.40;;;;;;;8.31;100.00;102184.78;5111574;27;20038;-77
2021/12/15 07:30:52;;;;;;;72.90;29.20;;;;;;;8.30;100.00;102183.06;5112210;28;20035;-79
2021/12/15 07:33:17;;;;;;;89.70;31.58;;;;;;;8.27;100.00;102185.97;5095274;28;20422;-77
2021/12/15 07:35:43;;;;;;;75.45;28.13;;;;;;;8.24;100.00;102186.19;5110926;27;20062;-77
2021/12/15 07:38:09;;;;;;;80.72;30.88;;;;;;;8.24;100.00;102180.84;5129313;27;20077;-77
2021/12/15 07:40:37;;;;;;;77.55;29.45;;;;;;;8.30;100.00;102192.88;5110870;28;20043;-77
2021/12/15 07:43:08;;;;;;;80.97;29.95;;;;;;;8.27;100.00;102188.63;5129164;28;20023;-77
2021/12/15 07:45:38;;;;;;;76.95;30.63;;;;;;;8.27;100.00;102185.97;5109761;28;20464;-77
2021/12/15 07:48:04;;;;;;;83.00;31.00;;;;;;;8.16;100.00;102173.44;5094300;27;20046;-77
2021/12/15 07:50:32;;;;;;;80.80;28.92;;;;;;;8.21;100.00;102183.75;5094275;28;20444;-77
2021/12/15 07:52:57;;;;;;;82.20;30.95;;;;;;;8.22;100.00;102191.63;5111081;28;20034;-77
2021/12/15 07:55:25;;;;;;;79.93;31.73;;;;;;;8.32;100.00;102209.59;5110807;28;20039;-77
2021/12/15 07:57:52;;;;;;;91.53;32.85;;;;;;;8.32;100.00;102202.44;5094279;28;20040;-77
2021/12/15 08:00:18;;;;;;;74.65;29.88;;;;;;;8.34;100.00;102210.34;5111173;27;20419;-77
2021/12/15 08:02:44;;;;;;;71.95;29.27;;;;;;;8.20;100.00;102190.06;5110971;28;20531;-77
2021/12/15 08:05:10;;;;;;;77.70;28.27;;;;;;;8.30;100.00;102203.53;5128899;28;20129;-77
2021/12/15 08:07:35;;;;;;;80.10;30.17;;;;;;;8.34;100.00;102208.50;5094254;28;20050;-77
2021/12/15 08:10:03;;;;;;;72.17;29.00;;;;;;;8.35;100.00;102207.53;5128471;28;20046;-77
2021/12/15 08:12:29;;;;;;;82.78;30.85;;;;;;;8.39;100.00;102218.81;5110995;28;20065;-77
2021/12/15 08:14:55;;;;;;;73.43;28.02;;;;;;;8.43;100.00;102220.34;5110802;28;20071;-77
2021/12/15 08:17:21;;;;;;;68.78;29.67;;;;;;;8.47;100.00;102229.78;5110864;28;20204;-77
2021/12/15 08:19:47;;;;;;;74.30;28.52;;;;;;;8.52;100.00;102234.75;5129054;27;20039;-77
2021/12/15 08:22:13;;;;;;;71.05;27.92;;;;;;;8.50;100.00;102218.03;5113543;27;20031;-78
2021/12/15 08:24:38;;;;;;;69.72;28.75;;;;;;;8.54;100.00;102219.53;5114456;27;20456;-78
2021/12/15 08:27:04;;;;;;;64.07;27.10;;;;;;;8.52;100.00;102211.69;5114935;27;20359;-77
2021/12/15 08:29:30;;;;;;;55.72;24.70;;;;;;;8.54;100.00;102200.91;5114750;27;20035;-78
2021/12/15 08:31:55;;;;;;;74.30;29.20;;;;;;;8.63;100.00;102211.72;5114749;27;20110;-77
2021/12/15 08:34:21;;;;;;;63.13;27.35;;;;;;;8.59;100.00;102188.09;5114711;27;20417;-78
2021/12/15 08:36:49;;;;;;;67.13;26.57;;;;;;;8.63;100.00;102184.25;5114736;27;20055;-77
2021/12/15 08:39:16;;;;;;;63.67;24.55;;;;;;;8.69;100.00;102189.13;5114671;27;20441;-77
2021/12/15 08:41:41;;;;;;;;;;;;;;;8.72;100.00;102186.22;5098034;27;20544;-77
2021/12/15 08:44:08;;;;;;;60.42;26.33;;;;;;;8.72;100.00;102185.38;5114147;27;19916;-77
2021/12/15 08:46:43;;;;;;;63.47;27.05;;;;;;;8.75;100.00;102177.16;5132361;27;20118;-77
2021/12/15 08:49:12;;;;;;;60.53;25.05;;;;;;;8.82;100.00;102187.22;5132519;27;20115;-77
2021/12/15 08:51:38;;;;;;;52.92;26.00;;;;;;;8.87;100.00;102179.75;5132303;27;20316;-77
2021/12/15 08:54:08;;;;;;;55.75;26.40;;;;;;;8.85;100.00;102179.00;5113963;27;20081;-78
2021/12/15 08:56:35;;;;;;;54.80;24.70;;;;;;;8.83;100.00;102166.78;5132378;27;20031;-77
2021/12/15 08:59:02;;;;;;;56.03;25.20;;;;;;;8.83;100.00;102164.97;5114141;27;20822;-77
2021/12/15 09:01:27;;;;;;;59.55;23.25;;;;;;;8.83;100.00;102162.28;5114134;27;20098;-77
2021/12/15 09:03:53;;;;;;;56.22;24.83;;;;;;;8.86;100.00;102163.88;5096784;27;20162;-77
2021/12/15 09:06:19;;;;;;;58.92;24.60;;;;;;;8.88;100.00;102153.94;5132144;27;20046;-77
2021/12/15 09:08:46;;;;;;;53.50;25.35;;;;;;;8.91;100.00;102160.84;5114029;27;20057;-77
2021/12/15 09:11:15;;;;;;;51.63;24.83;;;;;;;8.89;100.00;102158.31;5114118;27;20512;-77
2021/12/15 09:13:44;;;;;;;64.38;27.67;;;;;;;8.95;100.00;102168.50;5113555;27;20403;-77
2021/12/15 09:16:11;;;;;;;60.25;26.17;;;;;;;8.99;100.00;102166.44;5132009;27;20027;-77
2021/12/15 09:18:39;;;;;;;52.38;24.25;;;;;;;9.08;100.00;102165.72;5113825;27;20039;-77
2021/12/15 09:21:07;;;;;;;61.13;26.08;;;;;;;9.16;100.00;102158.00;5131792;27;20077;-77
2021/12/15 09:23:33;;;;;;;57.25;25.33;;;;;;;9.18;100.00;102153.41;5131523;27;20092;-77
2021/12/15 09:25:58;;;;;;;54.05;24.65;;;;;;;9.27;100.00;102152.69;5113709;27;20459;-77
2021/12/15 09:28:25;;;;;;;54.53;24.40;;;;;;;9.19;100.00;102149.75;5113564;27;20035;-78
2021/12/15 09:30:53;;;;;;;63.22;26.30;;;;;;;9.14;100.00;102154.59;5113502;27;20408;-78
2021/12/15 09:33:22;;;;;;;63.55;25.95;;;;;;;9.07;100.00;102156.06;5112945;27;20031;-77
2021/12/15 09:35:49;;;;;;;59.58;26.05;;;;;;;9.07;100.00;102154.22;5096469;27;20046;-78
2021/12/15 09:38:16;;;;;;;54.30;24.00;;;;;;;9.07;100.00;102153.38;5113484;27;20035;-78
2021/12/15 09:40:43;;;;;;;66.70;27.42;;;;;;;9.22;100.00;102168.16;5113243;27;20127;-78
2021/12/15 09:43:10;;;;;;;;;;;;;;;9.25;100.00;102154.63;5113667;27;20023;-78
2021/12/15 09:46:41;;;;;;;50.53;24.42;;;;;;;9.13;100.00;102150.25;5131388;27;19911;-78
2021/12/15 09:57:07;;;;;;;50.08;25.90;;;;;;;9.13;100.00;102150.25;5113090;27;20253;-77
2021/12/15 10:02:36;;;;;;;46.05;24.30;;;;;;;9.12;100.00;102153.88;5112958;27;20035;-78
2021/12/15 10:05:16;;;;;;;52.10;26.30;;;;;;;9.64;100.00;102208.44;5112752;27;20487;-78
2021/12/15 10:11:11;;;;;;;54.95;24.95;;;;;;;10.16;100.00;102182.09;5112822;27;20031;-78
2021/12/15 10:19:19;;;;;;;50.10;22.10;;;;;;;9.72;100.00;102131.34;5130913;27;20062;-78
2021/12/15 10:21:57;;;;;;;41.80;22.17;;;;;;;9.64;100.00;102136.44;5111435;27;20047;-78
2021/12/15 10:24:46;;;;;;;46.30;22.00;;;;;;;9.60;100.00;102131.47;5111174;27;20035;-77
2021/12/15 10:27:17;;;;;;;47.85;22.73;;;;;;;9.61;100.00;102144.69;5110674;27;20042;-78
2021/12/15 10:30:08;;;;;;;44.15;21.25;;;;;;;9.63;100.00;102148.09;5128636;27;20350;-78
2021/12/15 10:32:37;;;;;;;46.50;22.90;;;;;;;9.56;100.00;102125.56;5110073;27;20038;-78
2021/12/15 10:35:09;;;;;;;44.30;19.60;;;;;;;9.58;100.00;102138.78;5128266;27;20079;-78
2021/12/15 10:37:35;;;;;;;39.08;19.75;;;;;;;9.59;100.00;102140.47;5129123;27;20031;-77
2021/12/15 10:40:08;;;;;;;35.03;19.75;;;;;;;9.67;100.00;102130.03;5111998;27;20050;-78
2021/12/15 10:42:34;;;;;;;38.65;19.77;;;;;;;9.62;100.00;102118.88;5112166;27;20038;-78
2021/12/15 10:45:10;;;;;;;41.93;20.30;;;;;;;9.57;100.00;102116.56;5111070;27;20116;-78
2021/12/15 10:47:41;;;;;;;40.92;20.52;;;;;;;9.57;100.00;102127.25;5095202;27;20035;-78
2021/12/15 10:50:13;;;;;;;41.80;21.13;;;;;;;9.50;100.00;102116.25;5112030;27;20039;-78
2021/12/15 10:52:58;;;;;;;43.58;22.52;;;;;;;9.48;100.00;102125.31;5111879;27;20034;-78
2021/12/15 10:55:35;;;;;;;50.72;22.05;;;;;;;9.58;100.00;102142.28;5111531;27;20035;-78
2021/12/15 10:58:21;;;;;;;43.92;21.58;;;;;;;9.43;100.00;102119.50;5112052;27;20042;-78
2021/12/15 11:00:46;;;;;;;;;;;;;;;9.44;100.00;102126.53;5130019;27;20464;-78
2021/12/15 11:03:16;;;;;;;;;;;;;;;9.46;100.00;102124.59;5130505;27;19985;-77
2021/12/15 11:05:42;;;;;;;49.90;20.83;;;;;;;9.44;100.00;102126.53;5129513;27;19915;-78
2021/12/15 11:08:08;;;;;;;45.08;22.60;;;;;;;9.47;100.00;102131.63;5111680;27;20027;-78
2021/12/15 11:10:36;;;;;;;40.65;22.27;;;;;;;9.45;100.00;102122.88;5111624;27;20092;-78
2021/12/15 11:13:09;;;;;;;38.22;19.98;;;;;;;9.48;100.00;102133.28;5094485;27;20509;-78
2021/12/15 11:15:40;;;;;;;34.47;17.75;;;;;;;9.47;100.00;102104.97;5094169;27;20039;-78
2021/12/15 11:18:11;;;;;;;55.25;20.67;;;;;;;9.51;100.00;102135.75;5111730;27;20092;-79
2021/12/15 11:20:45;;;;;;;39.88;19.13;;;;;;;9.41;100.00;102126.75;5111821;27;20074;-80
2021/12/15 11:23:14;;;;;;;36.03;18.15;;;;;;;9.49;100.00;102141.19;5111700;28;20049;-78
2021/12/15 11:25:45;;;;;;;36.22;19.98;;;;;;;9.39;100.00;102123.34;5128732;27;20054;-79
2021/12/15 11:28:16;;;;;;;37.90;18.50;;;;;;;9.36;100.00;102112.94;5111887;28;20104;-78
2021/12/15 11:30:47;;;;;;;37.53;18.63;;;;;;;9.45;100.00;102118.41;5094540;28;20050;-78
2021/12/15 11:33:32;;;;;;;36.05;17.73;;;;;;;9.60;100.00;102128.81;5111397;27;20038;-77
2021/12/15 11:36:10;;;;;;;38.63;18.63;;;;;;;9.73;100.00;102127.72;5111125;28;20035;-77
2021/12/15 11:38:38;;;;;;;36.97;16.45;;;;;;;9.71;100.00;102124.31;5129425;28;20547;-77
2021/12/15 11:41:06;;;;;;;31.17;16.90;;;;;;;9.65;100.00;102108.81;5129411;28;20019;-76
2021/12/15 11:43:34;;;;;;;31.83;15.85;;;;;;;9.75;100.00;102110.75;5129304;28;20184;-76
2021/12/15 11:46:02;;;;;;;33.85;16.08;;;;;;;9.58;100.00;102104.94;5111193;28;20231;-77
2021/12/15 11:48:32;;;;;;;36.50;17.52;;;;;;;9.60;100.00;102100.34;5094299;28;20034;-77
2021/12/15 11:51:04;;;;;;;30.45;15.88;;;;;;;9.62;100.00;102095.75;5094278;28;20092;-78
2021/12/15 14:13:02;;;;;;;18.90;7.38;;;;;;;8.15;100.00;102107.06;5108229;27;20512;-77
2021/12/15 14:15:30;;;;;;;13.52;5.90;;;;;;;8.20;100.00;102115.56;5109131;28;20036;-77
2021/12/15 14:17:58;;;;;;;23.67;7.90;;;;;;;8.22;100.00;102116.28;5107591;28;20032;-76
2021/12/15 14:20:25;;;;;;;15.23;6.05;;;;;;;8.26;100.00;102109.75;5106693;28;20053;-77
2021/12/15 14:22:56;;;;;;;14.45;6.45;;;;;;;8.28;100.00;102113.16;5106472;28;20039;-77
2021/12/15 14:25:22;;;;;;;13.20;7.00;;;;;;;8.31;100.00;102114.75;5105511;28;20472;-77
2021/12/15 14:27:48;;;;;;;21.70;8.43;;;;;;;8.27;100.00;102116.78;5089497;28;20020;-77
2021/12/15 14:30:13;;;;;;;17.27;7.47;;;;;;;8.32;100.00;102127.94;5089449;28;20039;-77
2021/12/15 14:32:39;;;;;;;14.93;7.50;;;;;;;8.35;100.00;102133.03;5106236;28;20032;-78
2021/12/15 14:35:16;;;;;;;15.13;7.07;;;;;;;8.32;100.00;102133.25;5106241;28;20044;-77
2021/12/15 14:37:42;;;;;;;14.43;6.03;;;;;;;8.28;100.00;102126.47;5107275;28;20370;-77
2021/12/15 14:40:08;;;;;;;12.38;6.20;;;;;;;8.33;100.00;102137.59;5105803;28;20062;-77
2021/12/15 14:42:34;;;;;;;12.85;6.18;;;;;;;8.26;100.00;102128.38;5087914;28;20172;-77
2021/12/15 14:45:02;;;;;;;;;;;;;;;8.30;100.00;102139.66;5105932;28;20081;-77
2021/12/15 14:47:31;;;;;;;12.60;6.00;;;;;;;8.24;100.00;102130.31;5104565;28;19911;-78